createdAt,value
2022-11-22T00:03:00.892Z,101855.88
2022-11-22T00:06:05.666Z,101880.53
2022-11-22T00:09:09.820Z,101869.63
2022-11-22T00:12:14.326Z,101862.94
2022-11-22T00:15:18.965Z,101841.38
2022-11-22T00:18:23.253Z,101867.22
2022-11-22T00:21:27.566Z,101883.97
2022-11-22T00:24:32.023Z,101882.75
2022-11-22T00:27:37.136Z,101873.75
2022-11-22T00:30:41.945Z,101877.13
2022-11-22T00:33:46.188Z,101856.91
2022-11-22T00:36:50.329Z,101862.75
2022-11-22T00:39:54.695Z,101867.13
2022-11-22T00:42:58.986Z,101836.22
2022-11-22T00:46:03.414Z,101867.38
2022-11-22T00:49:07.562Z,101867.66
2022-11-22T00:52:11.990Z,101855.63
2022-11-22T00:55:16.347Z,101865.34
2022-11-22T00:58:20.698Z,101868.88
2022-11-22T01:01:26.609Z,101881.34
2022-11-22T01:04:31.163Z,101869.50
2022-11-22T01:07:35.813Z,101869.00
2022-11-22T01:10:40.001Z,101823.16
2022-11-22T01:13:44.615Z,101855.91
2022-11-22T01:16:49.488Z,101872.44
2022-11-22T01:19:53.996Z,101847.75
2022-11-22T01:22:59.745Z,101864.63
2022-11-22T01:26:04.093Z,101866.22
2022-11-22T01:29:08.636Z,101856.22
2022-11-22T01:32:12.856Z,101870.72
2022-11-22T01:35:17.409Z,101860.63
2022-11-22T01:38:21.560Z,101855.22
2022-11-22T01:41:25.932Z,101865.47
2022-11-22T01:44:34.109Z,101865.00
2022-11-22T01:47:38.653Z,101852.75
2022-11-22T01:50:46.116Z,101861.88
2022-11-22T01:53:50.749Z,101851.94
2022-11-22T01:57:01.857Z,101859.44
2022-11-22T02:00:11.487Z,101861.72
2022-11-22T02:03:23.735Z,101840.63
2022-11-22T02:06:35.601Z,101864.94
2022-11-22T02:09:42.190Z,101859.81
2022-11-22T02:12:47.052Z,101859.88
2022-11-22T02:15:53.512Z,101854.53
2022-11-22T02:18:57.728Z,101822.41
2022-11-22T02:22:11.710Z,101837.81
2022-11-22T02:25:20.835Z,101854.41
2022-11-22T02:28:26.536Z,101848.25
2022-11-22T02:31:41.035Z,101833.06
2022-11-22T02:34:50.584Z,101842.78
2022-11-22T02:38:19.108Z,101840.03
2022-11-22T02:41:23.357Z,101821.59
2022-11-22T02:44:28.628Z,101831.94
2022-11-22T02:47:32.970Z,101821.31
2022-11-22T02:50:37.954Z,101827.47
2022-11-22T02:53:42.390Z,101830.88
2022-11-22T02:56:46.727Z,101828.13
2022-11-22T02:59:50.927Z,101820.19
2022-11-22T03:02:56.002Z,101810.53
2022-11-22T03:06:00.562Z,101826.81
2022-11-22T03:09:05.315Z,101817.13
2022-11-22T03:12:11.548Z,101804.72
2022-11-22T03:15:21.010Z,101798.19
2022-11-22T03:18:25.623Z,101807.88
2022-11-22T03:21:30.565Z,101809.38
2022-11-22T03:24:35.296Z,101814.75
2022-11-22T03:27:40.342Z,101821.97
2022-11-22T03:30:44.998Z,101813.22
2022-11-22T03:33:49.476Z,101807.88
2022-11-22T03:36:53.824Z,101768.06
2022-11-22T03:39:58.067Z,101760.84
2022-11-22T03:43:03.791Z,101795.31
2022-11-22T03:46:08.080Z,101784.38
2022-11-22T03:49:12.944Z,101775.25
2022-11-22T03:52:17.664Z,101766.03
2022-11-22T03:55:21.764Z,101744.19
2022-11-22T03:58:26.136Z,101749.47
2022-11-22T04:01:31.076Z,101763.50
2022-11-22T04:04:35.522Z,101749.31
2022-11-22T04:07:40.195Z,101750.59
2022-11-22T04:10:44.741Z,101751.50
2022-11-22T04:14:07.076Z,101747.38
2022-11-22T04:17:15.270Z,101750.66
2022-11-22T04:20:47.126Z,101741.38
2022-11-22T04:24:11.226Z,101735.06
2022-11-22T04:27:15.936Z,101728.13
2022-11-22T04:30:21.057Z,101731.53
2022-11-22T04:33:25.893Z,101730.06
2022-11-22T04:36:30.347Z,101735.63
2022-11-22T04:39:36.621Z,101727.25
2022-11-22T04:42:59.137Z,101729.97
2022-11-22T04:46:03.747Z,101749.69
2022-11-22T04:49:07.929Z,101737.19
2022-11-22T04:52:30.894Z,101756.63
2022-11-22T04:55:35.359Z,101742.97
2022-11-22T04:58:40.041Z,101747.97
2022-11-22T05:01:44.459Z,101716.78
2022-11-22T05:04:50.799Z,101755.09
2022-11-22T05:07:55.412Z,101755.72
2022-11-22T05:11:00.407Z,101749.47
2022-11-22T05:14:05.256Z,101761.31
2022-11-22T05:17:13.168Z,101753.41
2022-11-22T05:20:18.293Z,101749.56
2022-11-22T05:23:55.356Z,101726.91
2022-11-22T05:26:59.151Z,101745.19
2022-11-22T05:30:03.536Z,101754.81
2022-11-22T05:33:07.975Z,101741.91
2022-11-22T05:36:13.633Z,101734.63
2022-11-22T05:39:18.024Z,101726.47
2022-11-22T05:42:22.950Z,101754.38
2022-11-22T05:45:27.786Z,101765.50
2022-11-22T05:48:32.409Z,101753.28
2022-11-22T05:51:36.754Z,101724.53
2022-11-22T05:54:41.062Z,101740.84
2022-11-22T05:57:45.441Z,101755.28
2022-11-22T06:00:50.041Z,101752.97
2022-11-22T06:03:55.454Z,101759.97
2022-11-22T06:06:59.693Z,101760.84
2022-11-22T06:10:04.433Z,101765.34
2022-11-22T06:13:09.861Z,101763.81
2022-11-22T06:16:16.484Z,101762.41
2022-11-22T06:19:21.026Z,101769.38
2022-11-22T06:22:25.194Z,101774.44
2022-11-22T06:25:29.483Z,101775.91
2022-11-22T06:28:35.283Z,101748.38
2022-11-22T06:31:39.178Z,101777.41
2022-11-22T06:34:43.697Z,101776.53
2022-11-22T06:37:49.734Z,101785.28
2022-11-22T06:40:53.913Z,101776.66
2022-11-22T06:43:58.510Z,101776.00
2022-11-22T06:47:03.145Z,101752.00
2022-11-22T06:50:08.240Z,101774.63
2022-11-22T06:53:32.295Z,101779.63
2022-11-22T06:56:42.233Z,101781.38
2022-11-22T06:59:46.688Z,101774.66
2022-11-22T07:02:51.011Z,101779.09
2022-11-22T07:05:56.379Z,101777.03
2022-11-22T07:09:02.592Z,101794.47
2022-11-22T07:12:07.499Z,101781.47
2022-11-22T07:15:12.429Z,101786.72
2022-11-22T07:18:16.864Z,101787.41
2022-11-22T07:21:25.629Z,101790.41
2022-11-22T07:24:31.112Z,101794.88
2022-11-22T07:27:35.294Z,101800.38
2022-11-22T07:30:43.883Z,101790.63
2022-11-22T07:33:49.061Z,101791.38
2022-11-22T07:36:59.671Z,101790.94
2022-11-22T07:40:06.448Z,101798.13
2022-11-22T07:43:10.797Z,101793.72
2022-11-22T07:46:30.570Z,101802.50
2022-11-22T07:49:34.731Z,101782.88
2022-11-22T07:52:39.855Z,101789.63
2022-11-22T07:55:44.126Z,101795.34
2022-11-22T07:58:48.593Z,101806.69
2022-11-22T08:01:53.002Z,101805.59
2022-11-22T08:04:57.371Z,101801.00
2022-11-22T08:08:01.629Z,101810.38
2022-11-22T08:11:07.669Z,101793.47
2022-11-22T08:14:13.185Z,101815.97
2022-11-22T08:17:17.661Z,101811.06
2022-11-22T08:20:22.005Z,101807.84
2022-11-22T08:23:26.514Z,101813.63
2022-11-22T08:26:30.758Z,101817.94
2022-11-22T08:29:35.682Z,101805.56
2022-11-22T08:32:40.290Z,101826.69
2022-11-22T08:35:44.845Z,101808.94
2022-11-22T08:38:49.204Z,101812.56
2022-11-22T08:41:53.613Z,101819.00
2022-11-22T08:44:57.742Z,101770.22
2022-11-22T08:48:02.116Z,101826.97
2022-11-22T08:51:13.479Z,101808.47
2022-11-22T08:54:18.136Z,101820.28
2022-11-22T08:57:22.547Z,101832.72
2022-11-22T09:00:32.935Z,101825.03
2022-11-22T09:03:38.624Z,101825.16
2022-11-22T09:10:11.733Z,101829.41
2022-11-22T09:13:17.063Z,101828.38
2022-11-22T09:16:22.302Z,101840.31
2022-11-22T09:19:27.194Z,101833.44
2022-11-22T09:22:35.416Z,101830.97
2022-11-22T09:25:40.313Z,101831.47
2022-11-22T09:28:45.427Z,101844.06
2022-11-22T09:31:50.607Z,101839.41
2022-11-22T09:34:55.130Z,101836.16
2022-11-22T09:37:59.660Z,101846.97
2022-11-22T09:41:25.407Z,101834.13
2022-11-22T09:44:48.534Z,101849.00
2022-11-22T09:48:22.032Z,101853.28
2022-11-22T09:51:35.679Z,101838.31
2022-11-22T09:55:05.908Z,101851.91
2022-11-22T09:58:32.633Z,101843.06
2022-11-22T10:02:18.256Z,101837.25
2022-11-22T10:05:30.824Z,101831.47
2022-11-22T10:08:58.688Z,101847.41
2022-11-22T10:12:24.141Z,101847.44
2022-11-22T10:15:49.316Z,101852.91
2022-11-22T10:19:09.539Z,101847.50
2022-11-22T10:22:16.075Z,101849.56
2022-11-22T10:25:47.038Z,101854.50
2022-11-22T10:29:32.166Z,101864.72
2022-11-22T10:32:50.716Z,101846.75
2022-11-22T10:36:10.529Z,101870.88
2022-11-22T10:39:21.034Z,101861.06
2022-11-22T10:43:03.718Z,101831.03
2022-11-22T10:46:25.230Z,101861.78
2022-11-22T10:49:53.820Z,101854.03
2022-11-22T10:53:24.610Z,101865.47
2022-11-22T10:56:35.949Z,101851.72
2022-11-22T10:59:56.604Z,101873.69
2022-11-22T11:03:28.196Z,101868.75
2022-11-22T11:07:04.579Z,101704.31
2022-11-22T11:10:29.285Z,101887.34
2022-11-22T11:13:43.377Z,101852.28
2022-11-22T11:16:48.334Z,101869.19
2022-11-22T11:19:56.472Z,101860.66
2022-11-22T11:23:16.750Z,101831.44
2022-11-22T11:26:29.586Z,101858.53
2022-11-22T11:29:42.562Z,101872.09
2022-11-22T11:32:57.887Z,101874.34
2022-11-22T11:36:17.622Z,101881.50
2022-11-22T11:39:26.709Z,101835.03
2022-11-22T11:42:34.189Z,101886.16
2022-11-22T11:45:38.468Z,101879.25
2022-11-22T11:48:44.375Z,101879.25
2022-11-22T11:51:54.513Z,101870.31
2022-11-22T11:55:04.253Z,101885.91
2022-11-22T11:58:35.130Z,101884.53
2022-11-22T12:02:15.852Z,101889.38
2022-11-22T12:05:20.379Z,101883.63
2022-11-22T12:08:33.264Z,101876.50
2022-11-22T12:11:49.917Z,101878.00
2022-11-22T12:15:36.741Z,101872.19
2022-11-22T12:18:51.485Z,101872.09
2022-11-22T12:22:29.349Z,101884.53
2022-11-22T12:25:43.567Z,101889.13
2022-11-22T12:28:50.117Z,101872.09
2022-11-22T12:32:28.418Z,101885.28
2022-11-22T12:35:45.158Z,101886.19
2022-11-22T12:38:54.053Z,101899.81
2022-11-22T12:42:24.546Z,101899.16
2022-11-22T12:45:40.962Z,101884.81
2022-11-22T12:49:06.879Z,101902.56
2022-11-22T12:52:34.110Z,101891.25
2022-11-22T12:56:26.148Z,101902.81
2022-11-22T13:00:15.508Z,101899.66
2022-11-22T13:03:31.358Z,101897.53
2022-11-22T13:06:46.469Z,101881.47
2022-11-22T13:10:04.790Z,101895.06
2022-11-22T13:13:29.147Z,101909.59
2022-11-22T13:16:34.894Z,101887.88
2022-11-22T13:19:58.526Z,101899.56
2022-11-22T13:23:21.474Z,101905.19
2022-11-22T13:26:44.515Z,101903.50
2022-11-22T13:29:53.560Z,101908.44
2022-11-22T13:33:00.921Z,101924.91
2022-11-22T13:36:27.068Z,101920.31
2022-11-22T13:39:31.514Z,101917.34
2022-11-22T13:42:36.738Z,101921.22
2022-11-22T13:46:04.956Z,101924.88
2022-11-22T13:49:33.879Z,101922.69
2022-11-22T13:52:54.218Z,101919.13
2022-11-22T13:56:20.427Z,101908.63
2022-11-22T13:59:24.744Z,101920.34
2022-11-22T14:02:29.218Z,101912.00
2022-11-22T14:05:38.084Z,101916.13
2022-11-22T14:08:45.721Z,101912.19
2022-11-22T14:12:12.096Z,101923.75
2022-11-22T14:15:56.992Z,101924.25
2022-11-22T14:19:21.862Z,101917.88
2022-11-22T14:22:35.078Z,101925.88
2022-11-22T14:25:57.844Z,101916.47
2022-11-22T14:29:35.642Z,101920.53
2022-11-22T14:32:44.617Z,101920.63
2022-11-22T14:36:07.564Z,101925.50
2022-11-22T14:39:46.337Z,101925.81
2022-11-22T14:42:54.471Z,101915.97
2022-11-22T14:46:51.253Z,101913.66
2022-11-22T14:49:54.533Z,101930.72
2022-11-22T14:53:20.108Z,101927.00
2022-11-22T14:56:29.370Z,101920.34
2022-11-22T14:59:58.299Z,101924.16
2022-11-22T15:03:12.856Z,101928.50
2022-11-22T15:09:20.093Z,101921.91
2022-11-22T15:10:16.911Z,101928.34
2022-11-22T15:13:31.381Z,101919.00
2022-11-22T15:58:23.223Z,101905.19
2022-11-22T16:01:28.557Z,101913.00
2022-11-22T16:04:37.789Z,101920.94
2022-11-22T16:07:48.443Z,101915.56
2022-11-22T16:10:53.222Z,101878.75
2022-11-22T16:13:57.838Z,101904.38
2022-11-22T16:17:24.623Z,101904.28
2022-11-22T16:20:32.179Z,101915.72
2022-11-22T16:23:38.394Z,101900.16
2022-11-22T16:26:44.151Z,101900.69
2022-11-22T16:29:52.295Z,101913.41
2022-11-22T16:32:59.392Z,101883.00
2022-11-22T16:36:06.702Z,101903.41
2022-11-22T16:39:11.506Z,101884.75
2022-11-22T16:42:16.086Z,101894.75
2022-11-22T16:45:22.819Z,101911.41
2022-11-22T16:48:33.240Z,101905.53
2022-11-22T16:51:38.566Z,101902.69
2022-11-22T16:54:43.270Z,101906.63
2022-11-22T16:57:48.099Z,101906.94
2022-11-22T17:00:54.928Z,101902.75
2022-11-22T17:04:01.645Z,101893.97
2022-11-22T17:07:13.926Z,101908.63
2022-11-22T17:10:19.033Z,101899.25
2022-11-22T17:13:26.727Z,101910.38
2022-11-22T17:16:31.464Z,101899.06
2022-11-22T17:19:52.697Z,101896.81
2022-11-22T17:22:58.646Z,101892.44
2022-11-22T17:26:06.297Z,101860.91
2022-11-22T17:29:18.296Z,101886.66
2022-11-22T17:32:36.073Z,101893.38
2022-11-22T17:35:41.048Z,101886.41
2022-11-22T17:38:45.686Z,101878.03
2022-11-22T17:41:50.913Z,101897.72
2022-11-22T17:44:55.295Z,101885.94
2022-11-22T17:48:00.134Z,101895.31
2022-11-22T17:51:12.723Z,101894.88
2022-11-22T17:54:17.337Z,101899.19
2022-11-22T17:57:22.184Z,101897.41
2022-11-22T18:00:30.013Z,101876.34
2022-11-22T18:03:35.394Z,101878.03
2022-11-22T18:06:39.883Z,101892.84
2022-11-22T18:09:44.161Z,101877.88
2022-11-22T18:13:13.646Z,101880.00
2022-11-22T18:16:19.293Z,101885.13
2022-11-22T18:19:24.486Z,101874.63
2022-11-22T18:22:29.461Z,101859.81
2022-11-22T18:25:33.879Z,101874.31
2022-11-22T18:28:40.595Z,101830.53
2022-11-22T18:31:52.086Z,101870.16
2022-11-22T18:34:57.158Z,101873.56
2022-11-22T18:38:02.027Z,101877.75
2022-11-22T18:41:06.736Z,101878.81
2022-11-22T18:44:11.039Z,101876.25
2022-11-22T18:47:15.982Z,101879.94
2022-11-22T18:50:20.583Z,101883.38
2022-11-22T18:53:26.867Z,101877.84
2022-11-22T18:56:31.348Z,101886.41
2022-11-22T18:59:36.017Z,101863.81
2022-11-22T19:02:40.502Z,101883.56
2022-11-22T19:05:46.047Z,101892.66
2022-11-22T19:08:50.464Z,101885.09
2022-11-22T19:11:58.785Z,101873.75
2022-11-22T19:15:03.282Z,101879.59
2022-11-22T19:18:10.471Z,101879.16
2022-11-22T19:21:17.279Z,101877.34
2022-11-22T19:24:21.713Z,101875.78
2022-11-22T19:27:26.081Z,101863.97
2022-11-22T19:30:30.383Z,101883.34
2022-11-22T19:33:41.446Z,101887.56
2022-11-22T19:36:45.895Z,101886.25
2022-11-22T19:39:50.637Z,101882.19
2022-11-22T19:42:55.115Z,101885.03
2022-11-22T19:46:02.743Z,101881.56
2022-11-22T19:49:07.602Z,101876.75
2022-11-22T19:52:12.325Z,101874.09
2022-11-22T19:55:16.835Z,101884.94
2022-11-22T19:58:21.320Z,101874.00
2022-11-22T20:01:28.195Z,101880.03
2022-11-22T20:04:32.859Z,101848.84
2022-11-22T20:07:38.018Z,101859.00
2022-11-22T20:10:43.452Z,101850.91
2022-11-22T20:13:51.132Z,101836.03
2022-11-22T20:16:55.549Z,101838.59
2022-11-22T20:20:00.251Z,101847.84
2022-11-22T20:23:04.618Z,101835.63
2022-11-22T20:26:11.471Z,101848.84
2022-11-22T20:29:16.926Z,101848.59
2022-11-22T20:32:21.596Z,101846.66
2022-11-22T20:35:26.081Z,101835.66
2022-11-22T20:38:33.620Z,101843.59
2022-11-22T20:41:38.979Z,101847.38
2022-11-22T20:44:43.432Z,101836.63
2022-11-22T20:47:47.786Z,101846.19
2022-11-22T20:50:53.261Z,101836.75
2022-11-22T20:53:58.839Z,101850.34
2022-11-22T20:57:03.226Z,101852.72
2022-11-22T21:00:08.543Z,101827.59
2022-11-22T21:03:12.867Z,101806.53
2022-11-22T21:06:20.140Z,101854.78
2022-11-22T21:09:24.596Z,101844.56
2022-11-22T21:12:28.837Z,101849.50
2022-11-22T21:15:33.309Z,101839.00
2022-11-22T21:18:37.800Z,101843.38
2022-11-22T21:21:42.233Z,101790.59
2022-11-22T21:24:46.485Z,101817.38
2022-11-22T21:27:50.864Z,101814.31
2022-11-22T21:30:59.179Z,101838.59
2022-11-22T21:34:03.417Z,101832.66
2022-11-22T21:37:07.943Z,101820.84
2022-11-22T21:40:13.565Z,101794.66
2022-11-22T21:43:17.939Z,101825.78
2022-11-22T21:46:22.093Z,101824.13
2022-11-22T21:49:26.659Z,101820.59
2022-11-22T21:52:32.902Z,101830.66
2022-11-22T21:55:37.031Z,101829.81
2022-11-22T21:58:41.279Z,101830.53
2022-11-22T22:01:45.718Z,101824.34
2022-11-22T22:04:50.013Z,101823.34
2022-11-22T22:07:54.624Z,101827.47
2022-11-22T22:10:59.702Z,101829.31
2022-11-22T22:14:04.278Z,101830.03
2022-11-22T22:17:08.600Z,101797.06
2022-11-22T22:20:13.227Z,101813.59
2022-11-22T22:23:17.500Z,101832.53
2022-11-22T22:26:21.877Z,101841.88
2022-11-22T22:29:26.137Z,101839.44
2022-11-22T22:32:30.247Z,101850.44
2022-11-22T22:35:34.716Z,101848.00
2022-11-22T22:38:39.545Z,101849.09
2022-11-22T22:41:43.877Z,101845.38
2022-11-22T22:44:48.335Z,101838.34
2022-11-22T22:47:52.721Z,101865.41
2022-11-22T22:50:56.969Z,101862.25
2022-11-22T22:54:02.220Z,101866.88
2022-11-22T22:57:06.562Z,101847.97
2022-11-22T23:00:14.376Z,101844.25
2022-11-22T23:03:18.619Z,101849.31
2022-11-22T23:06:23.564Z,101821.50
2022-11-22T23:09:28.028Z,101826.94
2022-11-22T23:12:32.340Z,101847.13
2022-11-22T23:15:57.427Z,101849.50
2022-11-22T23:19:02.783Z,101850.03
2022-11-22T23:22:07.509Z,101840.31
2022-11-22T23:25:11.830Z,101858.41
2022-11-22T23:28:16.594Z,101851.78
2022-11-22T23:31:21.861Z,101856.78
2022-11-22T23:34:26.518Z,101856.72
2022-11-22T23:37:30.610Z,101857.47
2022-11-22T23:40:34.770Z,101850.81
2022-11-22T23:43:39.109Z,101838.06
2022-11-22T23:46:43.459Z,101860.00
2022-11-22T23:49:47.707Z,101859.00
2022-11-22T23:52:57.607Z,101853.91
2022-11-22T23:56:15.863Z,101837.84
2022-11-22T23:59:22.502Z,101829.31
